createdAt,value
2023-02-06T00:00:11.071Z,0.00
2023-02-06T00:01:11.065Z,0.00
2023-02-06T00:02:11.101Z,0.00
2023-02-06T00:03:11.068Z,0.00
2023-02-06T00:04:11.070Z,0.00
2023-02-06T00:05:11.063Z,0.00
2023-02-06T00:06:11.085Z,0.00
2023-02-06T00:07:11.064Z,0.00
2023-02-06T00:08:11.064Z,0.00
2023-02-06T00:09:11.085Z,0.00
2023-02-06T00:10:11.066Z,0.00
2023-02-06T00:11:12.060Z,0.00
2023-02-06T00:12:11.073Z,0.00
2023-02-06T00:13:11.066Z,0.00
2023-02-06T00:14:11.060Z,0.00
2023-02-06T00:15:11.076Z,0.00
2023-02-06T00:16:17.075Z,0.00
2023-02-06T00:17:11.070Z,0.00
2023-02-06T00:18:11.066Z,0.00
2023-02-06T00:19:11.066Z,0.00
2023-02-06T00:20:11.065Z,0.00
2023-02-06T00:21:11.062Z,0.00
2023-02-06T00:22:11.066Z,0.00
2023-02-06T00:23:11.062Z,0.00
2023-02-06T00:24:11.065Z,0.00
2023-02-06T00:25:11.062Z,0.00
2023-02-06T00:26:11.060Z,0.00
2023-02-06T00:27:11.072Z,0.00
2023-02-06T00:28:11.121Z,0.00
2023-02-06T00:29:11.068Z,0.00
2023-02-06T00:30:11.073Z,0.00
2023-02-06T00:31:11.148Z,0.00
2023-02-06T00:32:11.067Z,0.00
2023-02-06T00:33:11.075Z,0.00
2023-02-06T00:34:11.067Z,0.00
2023-02-06T00:35:11.069Z,0.00
2023-02-06T00:36:11.074Z,0.00
2023-02-06T00:37:11.065Z,0.00
2023-02-06T00:38:11.068Z,0.00
2023-02-06T00:39:11.073Z,0.00
2023-02-06T00:40:11.066Z,0.00
2023-02-06T00:41:11.072Z,0.00
2023-02-06T00:42:11.068Z,0.00
2023-02-06T00:43:11.069Z,0.00
2023-02-06T00:44:11.068Z,0.00
2023-02-06T00:45:11.071Z,0.00
2023-02-06T00:46:11.127Z,0.00
2023-02-06T00:47:11.067Z,0.00
2023-02-06T00:48:11.072Z,0.00
2023-02-06T00:49:11.068Z,0.00
2023-02-06T00:50:11.068Z,0.00
2023-02-06T00:51:11.073Z,0.00
2023-02-06T00:52:11.069Z,0.00
2023-02-06T00:53:11.069Z,0.00
2023-02-06T00:54:11.070Z,0.00
2023-02-06T00:55:11.069Z,0.00
2023-02-06T00:56:11.069Z,0.00
2023-02-06T00:57:11.070Z,0.00
2023-02-06T00:58:11.082Z,0.00
2023-02-06T00:59:11.074Z,0.00
2023-02-06T01:00:11.069Z,0.00
2023-02-06T01:01:11.065Z,0.00
2023-02-06T01:02:11.068Z,0.00
2023-02-06T01:03:11.070Z,0.00
2023-02-06T01:04:11.064Z,0.00
2023-02-06T01:05:11.067Z,0.00
2023-02-06T01:06:11.078Z,0.00
2023-02-06T01:07:11.063Z,0.00
2023-02-06T01:08:11.064Z,0.00
2023-02-06T01:09:11.062Z,0.00
2023-02-06T01:10:11.060Z,0.00
2023-02-06T01:11:13.078Z,0.00
2023-02-06T01:12:11.062Z,0.00
2023-02-06T01:13:11.057Z,0.00
2023-02-06T01:14:11.082Z,0.00
2023-02-06T01:15:11.058Z,0.00
2023-02-06T01:16:16.190Z,0.00
2023-02-06T01:17:11.072Z,0.00
2023-02-06T01:18:11.058Z,0.00
2023-02-06T01:19:11.062Z,0.00
2023-02-06T01:20:11.071Z,0.00
2023-02-06T01:21:14.058Z,0.00
2023-02-06T01:22:11.068Z,0.00
2023-02-06T01:23:11.066Z,0.00
2023-02-06T01:24:11.058Z,0.00
2023-02-06T01:25:11.058Z,0.00
2023-02-06T01:26:14.078Z,0.00
2023-02-06T01:27:11.062Z,0.00
2023-02-06T01:28:11.097Z,0.00
2023-02-06T01:29:11.065Z,0.00
2023-02-06T01:30:11.090Z,0.00
2023-02-06T01:31:15.143Z,0.00
2023-02-06T01:32:11.084Z,0.00
2023-02-06T01:33:11.060Z,0.00
2023-02-06T01:34:11.070Z,0.00
2023-02-06T01:35:11.063Z,0.00
2023-02-06T01:36:11.062Z,0.00
2023-02-06T01:37:11.075Z,0.00
2023-02-06T01:38:11.066Z,0.00
2023-02-06T01:39:11.069Z,0.00
2023-02-06T01:40:14.063Z,0.00
2023-02-06T01:41:11.066Z,0.00
2023-02-06T01:42:13.061Z,0.00
2023-02-06T01:43:17.064Z,0.00
2023-02-06T01:44:16.079Z,0.00
2023-02-06T01:45:19.061Z,0.00
2023-02-06T01:46:11.058Z,0.00
2023-02-06T01:47:11.068Z,0.01
2023-02-06T01:48:16.066Z,0.00
2023-02-06T01:49:14.059Z,0.00
2023-02-06T01:50:11.061Z,0.00
2023-02-06T01:51:13.069Z,0.00
2023-02-06T01:52:19.058Z,0.00
2023-02-06T01:53:11.063Z,0.00
2023-02-06T01:54:11.059Z,0.00
2023-02-06T01:55:11.065Z,0.00
2023-02-06T01:56:11.062Z,0.00
2023-02-06T01:57:12.068Z,0.00
2023-02-06T01:58:11.060Z,0.00
2023-02-06T01:59:11.058Z,0.00
2023-02-06T02:00:11.068Z,0.00
2023-02-06T02:01:11.061Z,0.00
2023-02-06T02:02:11.135Z,0.00
2023-02-06T02:03:11.065Z,0.00
2023-02-06T02:04:14.057Z,0.00
2023-02-06T02:05:11.065Z,0.00
2023-02-06T02:06:16.064Z,0.00
2023-02-06T02:07:20.057Z,0.00
2023-02-06T02:08:16.057Z,0.00
2023-02-06T02:09:11.059Z,0.00
2023-02-06T02:10:11.061Z,0.00
2023-02-06T02:11:11.067Z,0.00
2023-02-06T02:12:11.061Z,0.00
2023-02-06T02:13:11.062Z,0.00
2023-02-06T02:14:12.062Z,0.00
2023-02-06T02:15:11.063Z,0.00
2023-02-06T02:16:19.110Z,0.00
2023-02-06T02:17:21.063Z,0.00
2023-02-06T02:18:19.060Z,0.00
2023-02-06T02:19:23.074Z,0.00
2023-02-06T02:20:19.068Z,0.00
2023-02-06T02:21:21.067Z,0.00
2023-02-06T02:22:21.068Z,0.00
2023-02-06T02:23:21.065Z,0.00
2023-02-06T02:24:19.070Z,0.00
2023-02-06T02:25:21.068Z,0.00
2023-02-06T02:26:19.073Z,0.00
2023-02-06T02:27:19.067Z,0.00
2023-02-06T02:28:19.112Z,0.00
2023-02-06T02:29:19.069Z,0.00
2023-02-06T02:30:21.077Z,0.00
2023-02-06T02:31:19.116Z,0.00
2023-02-06T02:32:19.075Z,0.00
2023-02-06T02:33:19.070Z,0.00
2023-02-06T02:34:21.064Z,0.00
2023-02-06T02:35:19.086Z,0.00
2023-02-06T02:36:19.080Z,0.00
2023-02-06T02:37:19.070Z,0.00
2023-02-06T02:38:19.069Z,0.00
2023-02-06T02:39:20.071Z,0.00
2023-02-06T02:40:21.069Z,0.00
2023-02-06T02:41:18.071Z,0.00
2023-02-06T02:42:18.069Z,0.00
2023-02-06T02:43:19.068Z,0.00
2023-02-06T02:44:17.066Z,0.00
2023-02-06T02:45:19.072Z,0.00
2023-02-06T02:46:19.083Z,0.00
2023-02-06T02:47:14.068Z,0.00
2023-02-06T02:48:14.069Z,0.00
2023-02-06T02:49:13.070Z,0.00
2023-02-06T02:50:11.066Z,0.00
2023-02-06T02:51:11.071Z,0.00
2023-02-06T02:52:11.063Z,0.00
2023-02-06T02:53:11.066Z,0.00
2023-02-06T02:54:11.064Z,0.00
2023-02-06T02:55:15.094Z,0.00
2023-02-06T02:56:18.070Z,0.00
2023-02-06T02:57:14.061Z,0.00
2023-02-06T02:58:16.067Z,0.00
2023-02-06T02:59:18.083Z,0.00
2023-02-06T03:00:11.065Z,0.00
2023-02-06T03:01:12.126Z,0.00
2023-02-06T03:02:19.136Z,0.00
2023-02-06T03:03:11.074Z,0.00
2023-02-06T03:04:14.061Z,0.00
2023-02-06T03:05:12.067Z,0.00
2023-02-06T03:06:21.068Z,0.00
2023-02-06T03:07:19.065Z,0.00
2023-02-06T03:08:21.069Z,0.00
2023-02-06T03:09:21.073Z,0.00
2023-02-06T03:10:21.072Z,0.00
2023-02-06T03:11:18.072Z,0.00
2023-02-06T03:12:21.061Z,0.00
2023-02-06T03:13:19.060Z,0.00
2023-02-06T03:14:17.061Z,0.00
2023-02-06T03:15:19.065Z,0.00
2023-02-06T03:16:19.079Z,0.00
2023-02-06T03:17:13.062Z,0.00
2023-02-06T03:18:21.058Z,0.00
2023-02-06T03:19:19.073Z,0.00
2023-02-06T03:20:11.070Z,0.00
2023-02-06T03:21:13.062Z,0.00
2023-02-06T03:22:11.066Z,0.00
2023-02-06T03:23:12.071Z,0.00
2023-02-06T03:24:15.062Z,0.00
2023-02-06T03:25:13.071Z,0.00
2023-02-06T03:26:13.070Z,0.00
2023-02-06T03:27:14.066Z,0.00
2023-02-06T03:28:17.092Z,0.00
2023-02-06T03:29:11.066Z,0.00
2023-02-06T03:30:11.064Z,0.00
2023-02-06T03:31:13.063Z,0.00
2023-02-06T03:32:19.070Z,0.00
2023-02-06T03:33:13.066Z,0.00
2023-02-06T03:34:19.064Z,0.00
2023-02-06T03:35:17.063Z,0.00
2023-02-06T03:36:11.072Z,0.00
2023-02-06T03:37:11.068Z,0.00
2023-02-06T03:38:11.068Z,0.00
2023-02-06T03:39:11.076Z,0.00
2023-02-06T03:40:11.068Z,0.00
2023-02-06T03:41:12.076Z,0.00
2023-02-06T03:42:11.076Z,0.00
2023-02-06T03:43:11.063Z,0.00
2023-02-06T03:44:12.064Z,0.00
2023-02-06T03:45:19.067Z,0.00
2023-02-06T03:46:11.115Z,0.00
2023-02-06T03:47:12.061Z,0.00
2023-02-06T03:48:19.081Z,0.00
2023-02-06T03:49:12.066Z,0.00
2023-02-06T03:50:11.064Z,0.00
2023-02-06T03:51:16.064Z,0.00
2023-02-06T03:52:14.067Z,0.00
2023-02-06T03:53:11.065Z,0.00
2023-02-06T03:54:11.069Z,0.00
2023-02-06T03:55:17.069Z,0.00
2023-02-06T03:56:18.066Z,0.00
2023-02-06T03:57:13.073Z,0.00
2023-02-06T03:58:13.069Z,0.00
2023-02-06T03:59:11.092Z,0.00
2023-02-06T04:00:11.063Z,0.00
2023-02-06T04:01:11.165Z,0.00
2023-02-06T04:02:11.088Z,0.00
2023-02-06T04:03:11.067Z,0.00
2023-02-06T04:04:11.066Z,0.00
2023-02-06T04:05:11.066Z,0.00
2023-02-06T04:06:11.070Z,0.00
2023-02-06T04:07:19.069Z,0.00
2023-02-06T04:08:11.074Z,0.00
2023-02-06T04:09:11.070Z,0.00
2023-02-06T04:10:11.069Z,0.00
2023-02-06T04:11:11.091Z,0.00
2023-02-06T04:12:11.068Z,0.00
2023-02-06T04:13:11.068Z,0.00
2023-02-06T04:14:11.075Z,0.00
2023-02-06T04:15:11.066Z,0.00
2023-02-06T04:16:11.104Z,0.00
2023-02-06T04:17:11.076Z,0.00
2023-02-06T04:18:11.064Z,0.00
2023-02-06T04:19:11.068Z,0.00
2023-02-06T04:20:11.074Z,0.00
2023-02-06T04:21:11.065Z,0.00
2023-02-06T04:22:12.070Z,0.00
2023-02-06T04:23:11.074Z,0.00
2023-02-06T04:24:11.065Z,0.00
2023-02-06T04:25:11.069Z,0.00
2023-02-06T04:26:11.078Z,0.00
2023-02-06T04:27:11.064Z,0.00
2023-02-06T04:28:11.137Z,0.00
2023-02-06T04:29:11.078Z,0.00
2023-02-06T04:30:11.073Z,0.00
2023-02-06T04:31:11.161Z,0.00
2023-02-06T04:32:11.074Z,0.00
2023-02-06T04:33:11.064Z,0.00
2023-02-06T04:34:11.070Z,0.00
2023-02-06T04:35:11.076Z,0.00
2023-02-06T04:36:11.068Z,0.00
2023-02-06T04:37:11.069Z,0.00
2023-02-06T04:38:11.073Z,0.00
2023-02-06T04:39:11.068Z,0.00
2023-02-06T04:40:11.066Z,0.00
2023-02-06T04:41:11.078Z,0.00
2023-02-06T04:42:11.063Z,0.00
2023-02-06T04:43:11.068Z,0.00
2023-02-06T04:44:11.079Z,0.00
2023-02-06T04:45:11.065Z,0.00
2023-02-06T04:46:11.074Z,0.00
2023-02-06T04:47:11.075Z,0.00
2023-02-06T04:48:11.069Z,0.00
2023-02-06T04:49:11.068Z,0.00
2023-02-06T04:50:11.082Z,0.00
2023-02-06T04:51:11.064Z,0.00
2023-02-06T04:52:11.067Z,0.00
2023-02-06T04:53:11.082Z,0.00
2023-02-06T04:54:12.066Z,0.00
2023-02-06T04:55:11.066Z,0.00
2023-02-06T04:56:11.072Z,0.00
2023-02-06T04:57:11.064Z,0.00
2023-02-06T04:58:11.066Z,0.00
2023-02-06T04:59:11.073Z,0.00
2023-02-06T05:00:11.071Z,0.00
2023-02-06T05:01:11.098Z,0.00
2023-02-06T05:02:11.068Z,0.00
2023-02-06T05:03:11.065Z,0.00
2023-02-06T05:04:11.076Z,0.00
2023-02-06T05:05:11.063Z,0.00
2023-02-06T05:06:11.068Z,0.00
2023-02-06T05:07:11.061Z,0.00
2023-02-06T05:08:11.064Z,0.00
2023-02-06T05:09:11.086Z,0.00
2023-02-06T05:10:11.061Z,0.00
2023-02-06T05:11:11.067Z,0.00
2023-02-06T05:12:13.906Z,0.00
2023-02-06T05:13:11.061Z,0.00
2023-02-06T05:14:11.066Z,0.00
2023-02-06T05:15:11.060Z,0.00
2023-02-06T05:16:11.096Z,0.00
2023-02-06T05:17:11.073Z,0.00
2023-02-06T05:18:11.060Z,0.00
2023-02-06T05:19:11.058Z,0.00
2023-02-06T05:20:11.068Z,0.00
2023-02-06T05:21:11.060Z,0.00
2023-02-06T05:22:11.061Z,0.00
2023-02-06T05:23:11.067Z,0.00
2023-02-06T05:24:11.058Z,0.00
2023-02-06T05:25:11.060Z,0.00
2023-02-06T05:26:11.071Z,0.00
2023-02-06T05:27:11.058Z,0.00
2023-02-06T05:28:11.089Z,0.00
2023-02-06T05:29:11.063Z,0.00
2023-02-06T05:30:11.057Z,0.00
2023-02-06T05:31:11.145Z,0.00
2023-02-06T05:32:11.075Z,0.00
2023-02-06T05:33:11.057Z,0.00
2023-02-06T05:34:11.070Z,0.00
2023-02-06T05:35:11.070Z,0.00
2023-02-06T05:36:11.059Z,0.00
2023-02-06T05:37:11.062Z,0.00
2023-02-06T05:38:11.069Z,0.00
2023-02-06T05:39:11.064Z,0.00
2023-02-06T05:40:11.062Z,0.00
2023-02-06T05:41:11.062Z,0.00
2023-02-06T05:42:11.061Z,0.00
2023-02-06T05:43:11.060Z,0.00
2023-02-06T05:44:11.062Z,0.00
2023-02-06T05:45:11.062Z,0.00
2023-02-06T05:46:11.089Z,0.00
2023-02-06T05:47:11.066Z,0.00
2023-02-06T05:48:11.058Z,0.00
2023-02-06T05:49:11.062Z,0.00
2023-02-06T05:50:11.063Z,0.00
2023-02-06T05:51:11.067Z,0.00
2023-02-06T05:52:11.062Z,0.00
2023-02-06T05:53:11.071Z,0.00
2023-02-06T05:54:11.062Z,0.00
2023-02-06T05:55:11.071Z,0.00
2023-02-06T05:56:11.068Z,0.00
2023-02-06T05:57:11.062Z,0.00
2023-02-06T05:58:11.068Z,0.00
2023-02-06T05:59:11.078Z,0.00
2023-02-06T06:00:11.063Z,0.00
2023-02-06T06:01:11.069Z,0.00
2023-02-06T06:02:11.075Z,0.00
2023-02-06T06:03:11.062Z,0.00
2023-02-06T06:04:11.115Z,0.00
2023-02-06T06:05:11.074Z,0.00
2023-02-06T06:06:11.084Z,0.00
2023-02-06T06:07:11.064Z,0.00
2023-02-06T06:08:11.070Z,0.00
2023-02-06T06:09:11.068Z,0.00
2023-02-06T06:10:11.073Z,0.00
2023-02-06T06:11:11.069Z,0.00
2023-02-06T06:12:11.071Z,0.00
2023-02-06T06:13:11.067Z,0.00
2023-02-06T06:14:11.068Z,0.00
2023-02-06T06:15:11.075Z,0.00
2023-02-06T06:16:11.160Z,0.00
2023-02-06T06:17:11.071Z,0.00
2023-02-06T06:18:11.080Z,0.00
2023-02-06T06:19:11.071Z,0.00
2023-02-06T06:20:11.065Z,0.00
2023-02-06T06:21:11.083Z,0.00
2023-02-06T06:22:11.067Z,0.00
2023-02-06T06:23:11.065Z,0.00
2023-02-06T06:24:11.076Z,0.00
2023-02-06T06:25:11.068Z,0.00
2023-02-06T06:26:11.068Z,0.00
2023-02-06T06:27:12.080Z,0.00
2023-02-06T06:28:11.170Z,0.00
2023-02-06T06:29:11.064Z,0.00
2023-02-06T06:30:11.070Z,0.00
2023-02-06T06:31:11.100Z,0.00
2023-02-06T06:32:11.065Z,0.00
2023-02-06T06:33:11.070Z,0.00
2023-02-06T06:34:11.071Z,0.00
2023-02-06T06:35:11.064Z,0.00
2023-02-06T06:36:12.886Z,0.00
2023-02-06T06:37:11.070Z,0.00
2023-02-06T06:38:11.074Z,0.00
2023-02-06T06:39:11.068Z,0.00
2023-02-06T06:40:11.070Z,0.00
2023-02-06T06:41:11.073Z,0.00
2023-02-06T06:42:11.067Z,0.00
2023-02-06T06:43:11.087Z,0.00
2023-02-06T06:44:11.066Z,0.00
2023-02-06T06:45:11.090Z,0.00
2023-02-06T06:46:11.153Z,0.00
2023-02-06T06:47:11.068Z,0.00
2023-02-06T06:48:11.067Z,0.00
2023-02-06T06:49:11.071Z,0.00
2023-02-06T06:50:11.069Z,0.00
2023-02-06T06:51:11.066Z,0.00
2023-02-06T06:52:24.013Z,0.00
2023-02-06T06:53:13.154Z,0.00
2023-02-06T06:54:11.096Z,0.00
2023-02-06T06:55:11.079Z,0.00
2023-02-06T06:56:11.098Z,0.00
2023-02-06T06:57:11.070Z,0.00
2023-02-06T06:58:11.073Z,0.00
2023-02-06T06:59:11.097Z,0.00
2023-02-06T07:00:11.068Z,0.00
2023-02-06T07:01:11.129Z,0.00
2023-02-06T07:02:11.074Z,0.00
2023-02-06T07:03:11.115Z,0.00
2023-02-06T07:04:11.136Z,0.00
2023-02-06T07:05:11.078Z,0.00
2023-02-06T07:06:11.098Z,0.00
2023-02-06T07:07:11.114Z,0.00
2023-02-06T07:08:11.101Z,0.00
2023-02-06T07:09:11.087Z,0.00
2023-02-06T07:10:11.079Z,0.00
2023-02-06T07:11:13.066Z,0.00
2023-02-06T07:12:11.066Z,0.00
2023-02-06T07:13:11.111Z,0.00
2023-02-06T07:14:11.104Z,0.00
2023-02-06T07:15:11.070Z,0.01
2023-02-06T07:16:11.093Z,0.00
2023-02-06T07:17:11.086Z,0.00
2023-02-06T07:18:11.974Z,0.00
2023-02-06T07:19:11.079Z,0.00
2023-02-06T07:20:11.118Z,0.00
2023-02-06T07:21:11.101Z,0.00
2023-02-06T07:22:11.074Z,0.00
2023-02-06T07:23:11.084Z,0.00
2023-02-06T07:24:11.066Z,0.00
2023-02-06T07:25:11.065Z,0.00
2023-02-06T07:26:11.076Z,0.00
2023-02-06T07:27:11.091Z,0.00
2023-02-06T07:28:11.147Z,0.00
2023-02-06T07:29:11.086Z,0.00
2023-02-06T07:30:11.081Z,0.00
2023-02-06T07:31:11.091Z,0.00
2023-02-06T07:32:11.072Z,0.00
2023-02-06T07:33:11.096Z,0.00
2023-02-06T07:34:11.080Z,0.00
2023-02-06T07:35:11.069Z,0.01
2023-02-06T07:36:13.071Z,0.00
2023-02-06T07:37:11.098Z,0.00
2023-02-06T07:38:11.094Z,0.00
2023-02-06T07:39:11.066Z,0.00
2023-02-06T07:40:11.078Z,0.00
2023-02-06T07:41:12.693Z,0.00
2023-02-06T07:42:11.075Z,0.00
2023-02-06T07:43:11.074Z,0.00
2023-02-06T07:44:12.076Z,0.00
2023-02-06T07:45:11.100Z,0.00
2023-02-06T07:46:11.185Z,0.00
2023-02-06T07:47:12.068Z,0.00
2023-02-06T07:48:11.070Z,0.00
2023-02-06T07:49:12.073Z,0.00
2023-02-06T07:50:11.093Z,0.00
2023-02-06T07:51:11.082Z,0.00
2023-02-06T07:52:11.094Z,0.00
2023-02-06T07:53:11.077Z,0.00
2023-02-06T07:54:11.101Z,0.00
2023-02-06T07:55:11.067Z,0.00
2023-02-06T07:56:15.121Z,0.00
2023-02-06T07:57:11.082Z,0.00
2023-02-06T07:58:11.101Z,0.00
2023-02-06T07:59:11.088Z,0.01
2023-02-06T08:00:11.068Z,0.00
2023-02-06T08:01:11.115Z,0.01
2023-02-06T08:02:13.089Z,0.01
2023-02-06T08:03:11.114Z,0.01
2023-02-06T08:04:11.136Z,0.01
2023-02-06T08:05:11.074Z,0.01
2023-02-06T08:06:13.089Z,0.01
2023-02-06T08:07:11.068Z,0.02
2023-02-06T08:08:11.069Z,0.02
2023-02-06T08:09:12.116Z,0.02
2023-02-06T08:10:11.080Z,0.02
2023-02-06T08:11:11.085Z,0.02
2023-02-06T08:12:12.030Z,0.02
2023-02-06T08:13:11.070Z,0.02
2023-02-06T08:14:11.072Z,0.02
2023-02-06T08:15:11.066Z,0.03
2023-02-06T08:16:12.109Z,0.03
2023-02-06T08:17:11.078Z,0.03
2023-02-06T08:18:11.094Z,0.03
2023-02-06T08:19:16.066Z,0.03
2023-02-06T08:20:13.082Z,0.03
2023-02-06T08:21:14.160Z,0.03
2023-02-06T08:22:11.089Z,0.03
2023-02-06T08:23:11.114Z,0.04
2023-02-06T08:24:12.096Z,0.04
2023-02-06T08:25:11.080Z,0.04
2023-02-06T08:26:15.085Z,0.04
2023-02-06T08:27:11.076Z,0.04
2023-02-06T08:28:11.117Z,0.04
2023-02-06T08:29:11.071Z,0.04
2023-02-06T08:30:11.074Z,0.04
2023-02-06T08:31:18.169Z,0.04
2023-02-06T08:32:11.078Z,0.04
2023-02-06T08:33:11.087Z,0.05
2023-02-06T08:34:11.083Z,0.05
2023-02-06T08:35:11.093Z,0.05
2023-02-06T08:36:11.080Z,0.05
2023-02-06T08:37:11.074Z,0.05
2023-02-06T08:38:11.083Z,0.05
2023-02-06T08:39:13.114Z,0.06
2023-02-06T08:40:11.098Z,0.05
2023-02-06T08:41:19.078Z,0.06
2023-02-06T08:42:11.087Z,0.06
2023-02-06T08:43:11.081Z,0.05
2023-02-06T08:44:13.085Z,0.06
2023-02-06T08:45:11.108Z,0.06
2023-02-06T08:46:11.111Z,0.06
2023-02-06T08:47:11.098Z,0.06
2023-02-06T08:48:11.074Z,0.06
2023-02-06T08:49:16.100Z,0.05
2023-02-06T08:50:11.086Z,0.04
2023-02-06T08:51:11.120Z,0.04
2023-02-06T08:52:11.076Z,0.04
2023-02-06T08:53:11.093Z,0.04
2023-02-06T08:54:12.114Z,0.04
2023-02-06T08:55:11.094Z,0.04
2023-02-06T08:56:11.093Z,0.04
2023-02-06T08:57:11.066Z,0.04
2023-02-06T08:58:11.074Z,0.04
2023-02-06T08:59:11.097Z,0.04
2023-02-06T09:00:11.084Z,0.04
2023-02-06T09:01:14.108Z,0.05
2023-02-06T09:02:11.153Z,0.05
2023-02-06T09:03:11.110Z,0.06
2023-02-06T09:04:11.068Z,0.06
2023-02-06T09:05:11.069Z,0.07
2023-02-06T09:06:11.099Z,0.07
2023-02-06T09:07:11.079Z,0.07
2023-02-06T09:08:11.082Z,0.08
2023-02-06T09:09:11.077Z,0.08
2023-02-06T09:10:19.037Z,0.09
2023-02-06T09:11:17.078Z,0.09
2023-02-06T09:12:11.069Z,0.09
2023-02-06T09:13:11.068Z,0.10
2023-02-06T09:14:17.070Z,0.10
2023-02-06T09:15:11.063Z,0.11
2023-02-06T09:16:11.138Z,0.10
2023-02-06T09:17:11.090Z,0.11
2023-02-06T09:18:11.064Z,0.09
2023-02-06T09:19:11.076Z,0.11
2023-02-06T09:20:11.071Z,0.12
2023-02-06T09:21:11.064Z,0.12
2023-02-06T09:22:11.067Z,0.13
2023-02-06T09:23:11.073Z,0.13
2023-02-06T09:24:11.063Z,0.13
2023-02-06T09:25:11.068Z,0.13
2023-02-06T09:26:11.070Z,0.13
2023-02-06T09:27:11.107Z,0.14
2023-02-06T09:28:11.084Z,0.14
2023-02-06T09:29:11.070Z,0.15
2023-02-06T09:30:11.063Z,0.16
2023-02-06T09:31:11.169Z,0.15
2023-02-06T09:32:11.071Z,0.16
2023-02-06T09:33:11.063Z,0.16
2023-02-06T09:34:11.062Z,0.17
2023-02-06T09:35:11.072Z,0.17
2023-02-06T09:36:11.065Z,0.18
2023-02-06T09:37:11.061Z,0.19
2023-02-06T09:38:11.061Z,0.19
2023-02-06T09:39:11.061Z,0.19
2023-02-06T09:40:12.064Z,0.20
2023-02-06T09:41:21.061Z,0.21
2023-02-06T09:42:21.062Z,0.21
2023-02-06T09:43:13.060Z,0.22
2023-02-06T09:44:21.068Z,0.22
2023-02-06T09:45:19.065Z,0.22
2023-02-06T09:46:15.101Z,0.22
2023-02-06T09:47:19.055Z,0.22
2023-02-06T09:48:19.062Z,0.22
2023-02-06T09:49:18.086Z,0.22
2023-02-06T09:50:21.060Z,0.22
2023-02-06T09:51:18.059Z,0.22
2023-02-06T09:52:21.066Z,0.22
2023-02-06T09:53:21.062Z,0.22
2023-02-06T09:54:21.075Z,0.23
2023-02-06T09:55:21.062Z,0.23
2023-02-06T09:56:19.060Z,0.23
2023-02-06T09:57:19.057Z,0.23
2023-02-06T09:58:21.061Z,0.23
2023-02-06T09:59:21.068Z,0.23
2023-02-06T10:00:19.079Z,0.23
2023-02-06T10:01:20.124Z,0.23
2023-02-06T10:02:19.061Z,0.23
2023-02-06T10:03:19.062Z,0.23
2023-02-06T10:04:22.136Z,0.23
2023-02-06T10:05:19.066Z,0.23
2023-02-06T10:06:19.079Z,0.23
2023-02-06T10:07:19.055Z,0.23
2023-02-06T10:08:21.062Z,0.24
2023-02-06T10:09:17.066Z,0.23
2023-02-06T10:10:17.072Z,0.23
2023-02-06T10:11:23.059Z,0.23
2023-02-06T10:12:18.056Z,0.23
2023-02-06T10:13:19.061Z,0.23
2023-02-06T10:14:19.146Z,0.23
2023-02-06T10:15:18.063Z,0.23
2023-02-06T10:16:19.115Z,0.23
2023-02-06T10:17:19.056Z,0.23
2023-02-06T10:18:16.058Z,0.23
2023-02-06T10:19:21.067Z,0.23
2023-02-06T10:20:21.061Z,0.23
2023-02-06T10:21:19.059Z,0.23
2023-02-06T10:22:17.068Z,0.23
2023-02-06T10:23:19.072Z,0.23
2023-02-06T10:24:19.058Z,0.23
2023-02-06T10:25:20.062Z,0.23
2023-02-06T10:26:13.058Z,0.23
2023-02-06T10:27:14.061Z,0.22
2023-02-06T10:28:19.114Z,0.23
2023-02-06T10:29:19.061Z,0.23
2023-02-06T10:30:16.076Z,0.22
2023-02-06T10:31:21.151Z,0.22
2023-02-06T10:32:21.072Z,0.22
2023-02-06T10:33:25.530Z,0.22
2023-02-06T10:34:21.063Z,0.22
2023-02-06T10:35:19.064Z,0.22
2023-02-06T10:36:19.067Z,0.21
2023-02-06T10:37:19.073Z,0.21
2023-02-06T10:38:19.067Z,0.21
2023-02-06T10:39:21.066Z,0.21
2023-02-06T10:40:19.066Z,0.20
2023-02-06T10:41:19.069Z,0.21
2023-02-06T10:42:23.075Z,0.20
2023-02-06T10:43:21.075Z,0.20
2023-02-06T10:44:21.065Z,0.20
2023-02-06T10:45:21.128Z,0.19
2023-02-06T10:46:19.154Z,0.19
2023-02-06T10:47:21.069Z,0.19
2023-02-06T10:48:21.067Z,0.20
2023-02-06T10:49:21.076Z,0.20
2023-02-06T10:50:19.068Z,0.20
2023-02-06T10:51:19.068Z,0.20
2023-02-06T10:52:21.067Z,0.20
2023-02-06T10:53:21.072Z,0.21
2023-02-06T10:54:20.071Z,0.21
2023-02-06T10:55:19.071Z,0.21
2023-02-06T10:56:13.067Z,0.21
2023-02-06T10:57:17.071Z,0.21
2023-02-06T10:58:20.079Z,0.21
2023-02-06T10:59:21.072Z,0.21
2023-02-06T11:00:19.073Z,0.22
2023-02-06T11:01:24.973Z,0.22
2023-02-06T11:02:21.152Z,0.22
2023-02-06T11:03:17.088Z,0.23
2023-02-06T11:04:21.069Z,0.23
2023-02-06T11:05:17.077Z,0.23
2023-02-06T11:06:13.081Z,0.23
2023-02-06T11:07:18.082Z,0.23
2023-02-06T11:08:19.074Z,0.23
2023-02-06T11:09:13.068Z,0.24
2023-02-06T11:10:17.081Z,0.24
2023-02-06T11:11:21.077Z,0.24
2023-02-06T11:12:21.070Z,0.24
2023-02-06T11:13:20.081Z,0.24
2023-02-06T11:14:21.068Z,0.24
2023-02-06T11:15:19.072Z,0.24
2023-02-06T11:16:13.112Z,0.24
2023-02-06T11:17:11.077Z,0.24
2023-02-06T11:18:15.077Z,0.24
2023-02-06T11:19:21.080Z,0.23
2023-02-06T11:20:19.072Z,0.23
2023-02-06T11:21:11.087Z,0.22
2023-02-06T11:22:11.068Z,0.23
2023-02-06T11:23:18.076Z,0.23
2023-02-06T11:24:11.075Z,0.23
2023-02-06T11:25:19.074Z,0.23
2023-02-06T11:26:15.119Z,0.23
2023-02-06T11:27:16.071Z,0.24
2023-02-06T11:28:17.145Z,0.23
2023-02-06T11:29:16.076Z,0.23
2023-02-06T11:30:15.147Z,0.23
2023-02-06T11:31:11.106Z,0.23
2023-02-06T11:32:15.084Z,0.23
2023-02-06T11:33:19.072Z,0.23
2023-02-06T11:34:19.071Z,0.23
2023-02-06T11:35:19.075Z,0.23
2023-02-06T11:36:19.073Z,0.23
2023-02-06T11:37:19.073Z,0.23
2023-02-06T11:38:16.082Z,0.23
2023-02-06T11:39:19.073Z,0.23
2023-02-06T11:40:19.075Z,0.22
2023-02-06T11:41:17.079Z,0.23
2023-02-06T11:42:19.071Z,0.23
2023-02-06T11:43:19.070Z,0.22
2023-02-06T11:44:15.068Z,0.22
2023-02-06T11:45:19.074Z,0.22
2023-02-06T11:46:17.246Z,0.22
2023-02-06T11:47:19.069Z,0.22
2023-02-06T11:48:21.075Z,0.22
2023-02-06T11:49:19.124Z,0.22
2023-02-06T11:50:19.081Z,0.22
2023-02-06T11:51:11.078Z,0.22
2023-02-06T11:52:19.126Z,0.22
2023-02-06T11:53:16.071Z,0.22
2023-02-06T11:54:19.121Z,0.21
2023-02-06T11:55:19.080Z,0.21
2023-02-06T11:56:18.092Z,0.22
2023-02-06T11:57:19.086Z,0.22
2023-02-06T11:58:19.075Z,0.21
2023-02-06T11:59:18.086Z,0.21
2023-02-06T12:00:19.096Z,0.21
2023-02-06T12:01:19.073Z,0.20
2023-02-06T12:02:21.104Z,0.21
2023-02-06T12:03:19.164Z,0.21
2023-02-06T12:04:19.080Z,0.20
2023-02-06T12:05:14.079Z,0.20
2023-02-06T12:06:19.073Z,0.20
2023-02-06T12:07:16.072Z,0.20
2023-02-06T12:08:16.108Z,0.20
2023-02-06T12:09:14.078Z,0.20
2023-02-06T12:10:16.072Z,0.20
2023-02-06T12:11:20.074Z,0.20
2023-02-06T12:12:19.078Z,0.19
2023-02-06T12:13:18.076Z,0.20
2023-02-06T12:14:19.385Z,0.20
2023-02-06T12:15:43.677Z,0.20
2023-02-06T12:16:15.191Z,0.19
2023-02-06T12:17:21.084Z,0.19
2023-02-06T12:18:16.079Z,0.19
2023-02-06T12:19:20.076Z,0.19
2023-02-06T12:20:19.071Z,0.19
2023-02-06T12:21:15.078Z,0.18
2023-02-06T12:22:17.135Z,0.19
2023-02-06T12:23:19.077Z,0.19
2023-02-06T12:24:19.071Z,0.18
2023-02-06T12:25:23.077Z,0.18
2023-02-06T12:26:13.078Z,0.18
2023-02-06T12:27:19.078Z,0.18
2023-02-06T12:28:20.142Z,0.18
2023-02-06T12:29:18.074Z,0.17
2023-02-06T12:30:19.077Z,0.17
2023-02-06T12:31:20.332Z,0.17
2023-02-06T12:32:19.082Z,0.17
2023-02-06T12:33:17.143Z,0.17
2023-02-06T12:34:18.086Z,0.17
2023-02-06T12:35:19.090Z,0.17
2023-02-06T12:36:21.074Z,0.17
2023-02-06T12:37:21.080Z,0.17
2023-02-06T12:38:23.073Z,0.17
2023-02-06T12:39:17.512Z,0.17
2023-02-06T12:40:19.078Z,0.17
2023-02-06T12:41:19.085Z,0.17
2023-02-06T12:42:19.086Z,0.16
2023-02-06T12:43:12.075Z,0.16
2023-02-06T12:44:19.133Z,0.16
2023-02-06T12:45:19.080Z,0.16
2023-02-06T12:46:17.119Z,0.16
2023-02-06T12:47:21.071Z,0.16
2023-02-06T12:48:20.068Z,0.16
2023-02-06T12:49:23.071Z,0.15
2023-02-06T12:50:16.095Z,0.17
2023-02-06T12:51:19.083Z,0.15
2023-02-06T12:52:19.074Z,0.15
2023-02-06T12:53:23.070Z,0.15
2023-02-06T12:54:21.071Z,0.15
2023-02-06T12:55:21.077Z,0.15
2023-02-06T12:56:19.088Z,0.14
2023-02-06T12:57:18.074Z,0.14
2023-02-06T12:58:19.075Z,0.14
2023-02-06T12:59:19.075Z,0.14
2023-02-06T13:00:19.056Z,0.14
2023-02-06T13:01:28.832Z,0.14
2023-02-06T13:02:23.129Z,0.14
2023-02-06T13:03:19.064Z,0.14
2023-02-06T13:04:19.060Z,0.14
2023-02-06T13:05:21.065Z,0.14
2023-02-06T13:06:21.062Z,0.14
2023-02-06T13:07:14.068Z,0.13
2023-02-06T13:08:13.065Z,0.13
2023-02-06T13:09:15.067Z,0.13
2023-02-06T13:10:15.066Z,0.13
2023-02-06T13:11:17.062Z,0.14
2023-02-06T13:12:19.098Z,0.13
2023-02-06T13:13:19.068Z,0.12
2023-02-06T13:14:18.104Z,0.13
2023-02-06T13:15:19.066Z,0.12
2023-02-06T13:16:11.100Z,0.12
2023-02-06T13:17:15.062Z,0.12
2023-02-06T13:18:19.069Z,0.13